Flight Track Log - Related Links

Times and Time Zones

All times are in EDT time to prevent confusion due to time zone crossing. See the PDT4373 flight status page for this flight to view local times or setup timezone preferences in your user account.

Time Position Orientation Groundspeed Altitude Reporting Facility
EDT Latitude Longitude Course Direction KTS MPH feet Rate Location/Type
Fri 09:51:30 AM 39.9000 -75.2500 311° West 113 130 800  Level Philadelphia TRACON
Fri 09:53:00 AM 39.9167 -75.3000 294° West 132 152 3,300 1,640 Climbing Philadelphia TRACON
Fri 09:54:00 AM 40.0975 -75.3098 323° Northwest  Level Estimated
Fri 09:54:00 AM 39.9167 -75.3500 270° West 134 154 4,900  Level Philadelphia TRACON
Fri 09:55:00 AM 40.1725 -75.3328 311° West  Level Estimated
Fri 09:55:00 AM 39.9333 -75.4000 294° West 132 152 6,600  Level Philadelphia TRACON
Fri 09:56:00 AM 40.2476 -75.3560 311° West  Level Estimated
Fri 09:56:00 AM 39.9333 -75.4500 270° West 150 173 7,600  Level Philadelphia TRACON
Fri 09:57:00 AM 39.9500 -75.5000 294° West 154 177 8,600 700 Climbing Philadelphia TRACON
Fri 09:58:00 AM 40.0000 -75.5167 346° North 208 239 9,000 280 Climbing Philadelphia TRACON
Fri 09:59:30 AM 40.0839 -75.5403 348° North 230 265 9,300 520 Climbing New York Center
Fri 10:00:30 AM 40.1358 -75.5439 357° North 224 258 10,300 850 Climbing New York Center
Fri 10:01:30 AM 40.1936 -75.5533 353° North 200 230 11,000 600 Climbing New York Center
Fri 10:02:30 AM 40.2447 -75.5814 337° Northwest 187 215 11,500 500 Climbing New York Center
Fri 10:03:30 AM 40.2739 -75.6325 307° West 170 196 12,000 250 Climbing New York Center
Fri 10:04:30 AM 40.3111 -75.6867 312° West 189 217 12,000  Level New York Center
Fri 10:05:30 AM 40.3444 -75.7408 309° West 206 237 12,000 1,000 Level New York Center
Fri 10:06:30 AM 40.3836 -75.8008 311° West 211 243 14,000 300 Climbing New York Center
Fri 10:07:30 AM 40.4225 -75.8664 308° West 217 250 12,600 -200 Descending New York Center
Fri 10:08:30 AM 40.4758 -75.8867 344° North 198 228 13,600 700 Climbing New York Center
Fri 10:09:30 AM 40.5289 -75.9069 344° North 198 228 14,000 200 Climbing New York Center
Fri 10:10:30 AM 40.5861 -75.9386 337° Northwest 204 235 14,000  Level New York Center
Fri 10:11:30 AM 40.6433 -75.9650 341° North 215 247 14,000  Level New York Center
Fri 10:12:30 AM 40.7089 -75.9864 346° North 229 264 14,000  Level New York Center
Fri 10:13:30 AM 40.7703 -76.0128 342° North 234 269 14,000  Level New York Center
Fri 10:14:30 AM 40.8253 -76.0392 340° North 234 269 14,000  Level New York Center
Fri 10:15:30 AM 40.8867 -76.0658 342° North 234 269 14,000  Level New York Center
Fri 10:16:30 AM 40.9542 -76.0931 343° North 234 269 14,000  Level New York Center
Fri 10:17:30 AM 41.0114 -76.1194 341° North 234 269 14,000  Level New York Center
Fri 10:18:30 AM 41.0728 -76.1436 343° North 234 269 14,000  Level New York Center
Fri 10:19:30 AM 41.1425 -76.1683 345° North 234 269 14,000  Level New York Center
Fri 10:20:30 AM 41.2017 -76.1981 339° North 234 269 14,000  Level New York Center
Fri 10:21:30 AM 41.2678 -76.2086 353° North 229 264 14,000  Level New York Center
Fri 10:22:30 AM 41.3308 -76.1944 10° North 240 276 14,000  Level New York Center
Fri 10:23:30 AM 41.3997 -76.1917 North 240 276 14,000  Level New York Center
Fri 10:24:30 AM 41.4747 -76.1922 360° North 240 276 14,000 -100 Level New York Center
Fri 10:25:30 AM 41.5458 -76.1842 North 245 282 13,800 -550 Descending New York Center
Fri 10:26:30 AM 41.6192 -76.1761 North 260 299 12,900 -950 Descending New York Center
Fri 10:27:30 AM 41.6817 -76.1758 360° North 254 292 11,900 -1,000 Descending New York Center
Fri 10:28:30 AM 41.7547 -76.1733 North 254 292 10,900 -1,350 Descending New York Center
Fri 10:29:30 AM 41.8342 -76.1658 North 254 292 9,200 -1,400 Descending New York Center
Fri 10:30:30 AM 41.9031 -76.1631 North 252 290 8,100 -1,050 Descending New York Center
Fri 10:31:30 AM 41.9622 -76.1428 14° North 252 290 7,100 -1,000 Descending New York Center
Fri 10:32:30 AM 42.0181 -76.1028 28° Northeast 234 269 6,100 -1,000 Descending New York Center
Fri 10:33:30 AM 42.0739 -76.0653 26° Northeast 213 245 5,100 -1,050 Descending New York Center
Fri 10:34:30 AM 42.1169 -76.0353 27° Northeast 190 219 4,000 -850 Descending New York Center
Fri 10:35:30 AM 42.1547 -75.9822 46° Northeast 185 213 3,400 -500 Descending New York Center
Fri 10:36:30 AM 42.1736 -75.9278 65° Northeast 173 199 3,000 -450 Descending New York Center
Fri 10:37:30 AM 42.2025 -75.9356 349° North 108 124 2,500 -450 Descending New York Center
Fri 10:38:30 AM 42.2144 -75.9478 323° Northwest 69 79 2,100 -400 Descending New York Center

Login

Don't have an account? Register now (free) for customized features, flight alerts, and more!